Aeroporto :
LOGIN :

Iscrizione | Disclaimer

   EN    FR    IT 

 










Sommario :    VFR   VFR Marginale   IFR   IFR Intensivo   IFR Molto Intensivo
Visibilità : 
Base nubi : 
>= 8 km
>= 3000ft
5 / 8 km
1000 / 3000 ft
1500m / 5 km
500 / 1000 ft
800 / 1500m
200 / 500 ft
< 800m
< 200 ft
Simboli :   Temporali  Nebbia  Neve Forte  Precipitazioni Forti  Vento > 20 kt
SIGMETs :   Varie  Temporali  Ghiacco  Turbolenza  Onda orograficha  Ceneri Vulcaniche






- Altitudine del aeroporto : 202 ft
- Codice IATA : LGW


EGKK - London Gatwick

ULTIMO METAR :
  • 120020Z 22005KT CAVOK 01/01 Q1003

METARs OBSOLETI :
  • 112350Z 22004KT CAVOK 01/01 Q1004
  • 112320Z 19003KT CAVOK 01/01 Q1004
  • 112250Z 17002KT CAVOK 02/02 Q1003
  • 112220Z VRB02KT CAVOK 02/01 Q1003
  • 112150Z 19003KT CAVOK 02/01 Q1003

TAF TAF EGKK
Valido dal 12 a 00 ore il 13 a 06 ore UTC


112303Z 1200/1306 17002KT 9999 SCT035
TEMPO 1200/1209 6000
PROB30
TEMPO 1201/1207 0300 FZFG BKN000
BECMG 1209/1212 17013KT BKN010
PROB40
TEMPO 1209/1211 7000 -RA
TEMPO 1211/1220 17016G26KT 4000 RA BKN007
BECMG 1218/1222 23010KT SCT016
PROB40
TEMPO 1220/1303 26016G26KT 5000 SHRA BKN012



MetMap, La meteo Aeronautica in un colpo d'occhio ! - Copyright ORBIFLY Dicembre 2007 - Disclaimer

ORBIFLY MET'MAP TEAM :

Programmazione e sviluppo : Alexandra Zaïnal
Concezione : Baudouin d'Aumeries
Aiuto per la programmazione : Marc-Olivier Méhu
Supporto tecnico e logistico : Manuel Goepfert
Aiuto per la traduzione : Arnaldo La Scala

Contatto : metmap@orbifly.com




FONTI E CREDITI :

   NOAA